Time;durP1;ratioP1;P1;durP2;ratioP2;P2;SDS_P1;SDS_P2;PMS_P1;PMS_P2;Temp;Humidity;BMP_temperature;BMP_pressure;BME280_temperature;BME280_humidity;BME280_pressure;Samples;Min_cycle;Max_cycle;Signal;HPM_P1;HPM_P2
2022/12/08 00:01:05;;;;;;;10.73;4.80;;;;;;;;;;5081536;28;20037;-80
2022/12/08 00:03:33;;;;;;;9.88;4.88;;;;;;;;;;5087022;28;20095;-80
2022/12/08 00:11:34;;;;;;;9.18;4.70;;;;;;;;;;5079425;28;20053;-80
2022/12/08 00:14:01;;;;;;;10.43;4.47;;;;;;;;;;5084542;28;20048;-80
2022/12/08 00:16:29;;;;;;;10.48;4.75;;;;;;;;;;5064401;28;20046;-80
2022/12/08 00:18:56;;;;;;;9.45;4.03;;;;;;;;;;5086709;28;20037;-79
2022/12/08 00:21:23;;;;;;;8.13;3.95;;;;;;;;;;5084171;28;20108;-80
2022/12/08 00:23:50;;;;;;;6.97;4.10;;;;;;;;;;5080654;28;20049;-80
2022/12/08 00:26:17;;;;;;;18.52;5.22;;;;;;;;;;5085784;28;20912;-79
2022/12/08 00:28:44;;;;;;;9.10;4.53;;;;;;;;;;5067995;28;20123;-79
2022/12/08 00:31:12;;;;;;;6.53;4.25;;;;;;;;;;5081084;28;20033;-80
2022/12/08 00:33:39;;;;;;;14.15;4.35;;;;;;;;;;5079549;28;20045;-80
2022/12/08 00:36:11;;;;;;;7.88;3.95;;;;;;;;;;5081231;28;20053;-80
2022/12/08 00:38:39;;;;;;;5.82;4.10;;;;;;;;;;5079619;28;20053;-80
2022/12/08 00:41:08;;;;;;;7.82;4.15;;;;;;;;;;5080429;28;20033;-80
2022/12/08 00:43:35;;;;;;;7.80;4.28;;;;;;;;;;5080673;28;20045;-80
2022/12/08 00:46:03;;;;;;;7.80;4.45;;;;;;;;;;5087994;28;20045;-80
2022/12/08 00:48:30;;;;;;;10.60;4.60;;;;;;;;;;5085621;28;20037;-80
2022/12/08 00:50:57;;;;;;;6.88;4.50;;;;;;;;;;5074461;28;20168;-80
2022/12/08 00:53:25;;;;;;;6.15;4.35;;;;;;;;;;5086091;28;20143;-80
2022/12/08 00:55:52;;;;;;;8.30;4.85;;;;;;;;;;5070842;28;20041;-80
2022/12/08 00:58:22;;;;;;;6.72;4.63;;;;;;;;;;5081270;28;20048;-80
2022/12/08 01:00:50;;;;;;;6.10;4.07;;;;;;;;;;5082506;28;20128;-80
2022/12/08 01:03:19;;;;;;;5.25;3.78;;;;;;;;;;5085941;28;20045;-81
2022/12/08 01:05:48;;;;;;;11.80;3.90;;;;;;;;;;5083425;28;20037;-80
2022/12/08 01:08:16;;;;;;;4.43;3.13;;;;;;;;;;5085122;28;20052;-81
2022/12/08 01:10:43;;;;;;;13.27;4.30;;;;;;;;;;5087133;28;20053;-80
2022/12/08 01:13:11;;;;;;;5.20;3.88;;;;;;;;;;5080910;28;20055;-80
2022/12/08 01:15:38;;;;;;;9.15;4.10;;;;;;;;;;5072619;28;20148;-80
2022/12/08 01:18:05;;;;;;;5.60;3.90;;;;;;;;;;5085245;28;20053;-80
2022/12/08 01:20:33;;;;;;;8.45;3.78;;;;;;;;;;5087923;28;20037;-80
2022/12/08 01:23:00;;;;;;;6.13;3.45;;;;;;;;;;5076823;28;20101;-81
2022/12/08 01:25:28;;;;;;;5.53;3.78;;;;;;;;;;5089242;28;20113;-80
2022/12/08 01:27:55;;;;;;;4.88;3.25;;;;;;;;;;5089109;28;20151;-80
2022/12/08 01:30:22;;;;;;;6.20;3.92;;;;;;;;;;5083595;28;20171;-80
2022/12/08 01:32:52;;;;;;;6.68;3.80;;;;;;;;;;5081125;28;20105;-80
2022/12/08 01:35:20;;;;;;;6.50;4.22;;;;;;;;;;5087995;28;20086;-80
2022/12/08 01:37:47;;;;;;;5.35;3.78;;;;;;;;;;5083924;28;20045;-80
2022/12/08 01:40:15;;;;;;;5.20;3.90;;;;;;;;;;5086553;28;20037;-80
2022/12/08 01:42:42;;;;;;;5.97;3.00;;;;;;;;;;5090829;28;20083;-80
2022/12/08 01:45:22;;;;;;;3.58;2.65;;;;;;;;;;5090166;28;20060;-80
2022/12/08 01:47:54;;;;;;;4.10;3.03;;;;;;;;;;5084485;28;20057;-81
2022/12/08 01:50:22;;;;;;;3.90;2.83;;;;;;;;;;5087475;28;20107;-80
2022/12/08 01:52:50;;;;;;;5.65;3.20;;;;;;;;;;5072562;28;20045;-80
2022/12/08 01:55:24;;;;;;;4.32;2.85;;;;;;;;;;5075475;28;20049;-80
2022/12/08 01:57:53;;;;;;;5.28;3.45;;;;;;;;;;5084804;28;20048;-80
2022/12/08 02:00:24;;;;;;;3.50;2.65;;;;;;;;;;5086003;28;20051;-81
2022/12/08 02:02:57;;;;;;;7.80;2.75;;;;;;;;;;5091857;28;20037;-81
2022/12/08 02:05:27;;;;;;;7.15;3.13;;;;;;;;;;5080572;28;20059;-80
2022/12/08 02:07:55;;;;;;;6.93;3.22;;;;;;;;;;5079330;28;20042;-80
2022/12/08 02:10:23;;;;;;;4.57;3.00;;;;;;;;;;5065158;28;20063;-80
2022/12/08 02:12:54;;;;;;;7.25;3.40;;;;;;;;;;5086159;28;20044;-80
2022/12/08 02:15:32;;;;;;;5.55;3.25;;;;;;;;;;5070732;28;20049;-80
2022/12/08 02:18:12;;;;;;;11.82;3.95;;;;;;;;;;5084519;28;20041;-81
2022/12/08 02:20:42;;;;;;;6.20;4.30;;;;;;;;;;5080206;28;20102;-80
2022/12/08 02:23:22;;;;;;;9.35;4.78;;;;;;;;;;5087097;28;20045;-80
2022/12/08 02:25:56;;;;;;;8.68;5.30;;;;;;;;;;5088144;28;20096;-80
2022/12/08 02:28:41;;;;;;;8.73;5.40;;;;;;;;;;5088947;28;20144;-80
2022/12/08 02:31:12;;;;;;;8.80;4.97;;;;;;;;;;5086803;28;20033;-80
2022/12/08 02:33:39;;;;;;;10.02;6.20;;;;;;;;;;5089149;28;20064;-80
2022/12/08 02:36:13;;;;;;;12.27;6.05;;;;;;;;;;5095585;28;20056;-80
2022/12/08 02:39:08;;;;;;;9.75;6.45;;;;;;;;;;5083932;28;20052;-80
2022/12/08 02:42:02;;;;;;;9.98;5.90;;;;;;;;;;5081963;28;20037;-80
2022/12/08 02:44:33;;;;;;;13.30;6.25;;;;;;;;;;5047739;28;20042;-80
2022/12/08 02:47:03;;;;;;;8.18;5.70;;;;;;;;;;5083198;28;20072;-80
2022/12/08 02:49:31;;;;;;;9.45;5.82;;;;;;;;;;5078320;28;20064;-80
2022/12/08 02:52:28;;;;;;;10.85;5.80;;;;;;;;;;5086874;28;20033;-80
2022/12/08 02:55:01;;;;;;;9.75;4.75;;;;;;;;;;5087490;28;20052;-80
2022/12/08 02:57:31;;;;;;;10.52;5.45;;;;;;;;;;5085406;28;20049;-80
2022/12/08 03:00:05;;;;;;;7.40;4.90;;;;;;;;;;5088312;28;20041;-81
2022/12/08 03:02:43;;;;;;;7.47;4.38;;;;;;;;;;5083731;28;20040;-80
2022/12/08 03:05:21;;;;;;;6.65;4.40;;;;;;;;;;5091089;28;20049;-80
2022/12/08 03:07:54;;;;;;;7.72;3.50;;;;;;;;;;5094534;28;20132;-80
2022/12/08 03:10:29;;;;;;;10.15;4.00;;;;;;;;;;5083548;28;20053;-80
2022/12/08 03:13:06;;;;;;;7.05;3.90;;;;;;;;;;5080812;28;20037;-80
2022/12/08 03:15:36;;;;;;;5.57;3.00;;;;;;;;;;5067230;28;20048;-80
2022/12/08 03:18:04;;;;;;;4.32;2.70;;;;;;;;;;5081547;28;20492;-80
2022/12/08 03:20:33;;;;;;;5.85;2.95;;;;;;;;;;5089777;28;20037;-80
2022/12/08 03:23:02;;;;;;;3.88;2.38;;;;;;;;;;5077540;28;20140;-80
2022/12/08 03:25:31;;;;;;;6.68;1.92;;;;;;;;;;5072770;28;20048;-80
2022/12/08 03:27:59;;;;;;;6.57;2.47;;;;;;;;;;5082289;28;20061;-81
2022/12/08 03:30:28;;;;;;;7.72;2.10;;;;;;;;;;5067310;28;20102;-80
2022/12/08 03:32:58;;;;;;;4.03;1.90;;;;;;;;;;5080998;28;20045;-80
2022/12/08 03:35:27;;;;;;;6.95;2.20;;;;;;;;;;5081903;28;20060;-80
2022/12/08 03:38:09;;;;;;;11.93;2.15;;;;;;;;;;5071443;28;20072;-80
2022/12/08 03:40:36;;;;;;;5.68;1.67;;;;;;;;;;5076351;28;20937;-80
2022/12/08 03:43:04;;;;;;;3.05;1.67;;;;;;;;;;5076184;28;20077;-80
2022/12/08 03:45:31;;;;;;;2.75;1.38;;;;;;;;;;5085527;28;20053;-81
2022/12/08 03:47:58;;;;;;;2.97;1.05;;;;;;;;;;5079228;28;20714;-81
2022/12/08 03:50:26;;;;;;;2.60;1.38;;;;;;;;;;5081476;28;20034;-81
2022/12/08 03:52:54;;;;;;;15.88;1.25;;;;;;;;;;5084725;28;20049;-80
2022/12/08 03:55:21;;;;;;;1.50;1.10;;;;;;;;;;5087691;28;20044;-81
2022/12/08 03:57:49;;;;;;;1.55;1.00;;;;;;;;;;5084872;28;20140;-81
2022/12/08 04:00:17;;;;;;;3.25;1.08;;;;;;;;;;5089762;28;20068;-81
2022/12/08 04:02:44;;;;;;;1.75;1.00;;;;;;;;;;5074740;28;20048;-81
2022/12/08 04:05:11;;;;;;;1.00;0.90;;;;;;;;;;5083941;28;20037;-81
2022/12/08 04:07:38;;;;;;;5.30;1.40;;;;;;;;;;5090791;28;20113;-81
2022/12/08 04:10:06;;;;;;;2.88;1.10;;;;;;;;;;5082320;28;20160;-81
2022/12/08 04:12:37;;;;;;;2.30;0.98;;;;;;;;;;5087987;28;20064;-80
2022/12/08 04:15:05;;;;;;;2.42;1.20;;;;;;;;;;5088158;28;20052;-81
2022/12/08 04:17:32;;;;;;;2.28;1.10;;;;;;;;;;5088896;28;20060;-81
2022/12/08 04:19:59;;;;;;;5.13;1.30;;;;;;;;;;5083982;28;20041;-81
2022/12/08 04:22:27;;;;;;;7.70;1.30;;;;;;;;;;5061280;28;20064;-81
2022/12/08 04:24:54;;;;;;;1.10;1.00;;;;;;;;;;5068619;28;20081;-81
2022/12/08 04:27:22;;;;;;;2.65;1.08;;;;;;;;;;5069509;28;20045;-81
2022/12/08 04:29:49;;;;;;;3.88;1.27;;;;;;;;;;5068655;28;20044;-81
2022/12/08 04:32:18;;;;;;;4.22;1.27;;;;;;;;;;5066045;28;20064;-81
2022/12/08 04:34:46;;;;;;;1.52;1.20;;;;;;;;;;5066731;28;20041;-81
2022/12/08 04:37:13;;;;;;;5.82;1.30;;;;;;;;;;5067632;28;20046;-80
2022/12/08 04:39:40;;;;;;;3.83;2.10;;;;;;;;;;5062992;28;20038;-80
2022/12/08 04:42:08;;;;;;;2.60;1.80;;;;;;;;;;5066047;28;20041;-81
2022/12/08 04:44:35;;;;;;;5.97;2.00;;;;;;;;;;5064267;28;20117;-81
2022/12/08 04:47:05;;;;;;;4.03;2.00;;;;;;;;;;5061347;28;20048;-81
2022/12/08 04:49:32;;;;;;;3.17;2.30;;;;;;;;;;5068032;28;20863;-81
2022/12/08 04:51:59;;;;;;;6.35;3.35;;;;;;;;;;5066755;28;20033;-81
2022/12/08 04:54:27;;;;;;;6.30;3.17;;;;;;;;;;5065320;28;20053;-81
2022/12/08 04:56:57;;;;;;;4.13;2.83;;;;;;;;;;5065667;28;20168;-81
2022/12/08 04:59:25;;;;;;;3.92;2.30;;;;;;;;;;5067275;28;20042;-82
2022/12/08 05:01:55;;;;;;;4.93;2.60;;;;;;;;;;5066695;28;20030;-81
2022/12/08 05:04:25;;;;;;;4.90;2.10;;;;;;;;;;5067356;28;20117;-81
2022/12/08 05:06:55;;;;;;;8.60;2.40;;;;;;;;;;5070255;28;20057;-81
2022/12/08 05:09:22;;;;;;;4.78;1.92;;;;;;;;;;5064581;28;20061;-81
2022/12/08 05:11:49;;;;;;;11.45;2.10;;;;;;;;;;5065573;28;20105;-81
2022/12/08 05:14:18;;;;;;;6.35;2.00;;;;;;;;;;5068642;28;20046;-81
2022/12/08 05:16:46;;;;;;;4.18;2.08;;;;;;;;;;5069684;28;20119;-81
2022/12/08 05:19:15;;;;;;;9.80;1.98;;;;;;;;;;5066420;28;20104;-81
2022/12/08 05:21:43;;;;;;;1.50;1.15;;;;;;;;;;5073786;28;20059;-81
2022/12/08 05:24:10;;;;;;;4.65;1.75;;;;;;;;;;5085210;28;20039;-81
2022/12/08 05:26:37;;;;;;;2.88;1.10;;;;;;;;;;5065571;28;20127;-81
2022/12/08 05:29:05;;;;;;;1.38;1.00;;;;;;;;;;5072007;28;20088;-81
2022/12/08 05:31:35;;;;;;;5.80;1.20;;;;;;;;;;5084997;28;20033;-81
2022/12/08 05:34:02;;;;;;;2.75;1.10;;;;;;;;;;5087008;28;20045;-81
2022/12/08 05:36:29;;;;;;;2.35;1.00;;;;;;;;;;5087082;28;20049;-81
2022/12/08 05:38:57;;;;;;;5.35;1.10;;;;;;;;;;5085104;28;21067;-81
2022/12/08 05:41:25;;;;;;;2.03;1.00;;;;;;;;;;5084135;28;20049;-81
2022/12/08 05:43:55;;;;;;;2.63;0.80;;;;;;;;;;5065162;28;20049;-81
2022/12/08 05:46:22;;;;;;;3.72;0.68;;;;;;;;;;5079499;28;20053;-81
2022/12/08 05:48:50;;;;;;;4.97;0.88;;;;;;;;;;5087762;28;20033;-81
2022/12/08 05:51:20;;;;;;;10.93;1.17;;;;;;;;;;5085058;28;20049;-81
2022/12/08 05:53:49;;;;;;;2.97;0.77;;;;;;;;;;5073458;28;20121;-81
2022/12/08 05:56:17;;;;;;;1.83;0.80;;;;;;;;;;5089133;28;20069;-81
2022/12/08 05:59:15;;;;;;;6.32;1.10;;;;;;;;;;5089378;28;20111;-81
2022/12/08 06:01:48;;;;;;;2.90;1.10;;;;;;;;;;5079536;28;20037;-82
2022/12/08 06:04:15;;;;;;;1.55;0.80;;;;;;;;;;5088842;28;20037;-81
2022/12/08 06:06:43;;;;;;;1.55;1.13;;;;;;;;;;5083922;28;20069;-82
2022/12/08 06:09:11;;;;;;;3.10;0.80;;;;;;;;;;5083883;28;20045;-82
2022/12/08 06:11:39;;;;;;;3.75;1.05;;;;;;;;;;5081624;28;20577;-82
2022/12/08 06:14:09;;;;;;;1.00;1.00;;;;;;;;;;5080998;28;20108;-82
2022/12/08 06:16:36;;;;;;;6.55;2.70;;;;;;;;;;5083141;28;20104;-82
2022/12/08 06:19:04;;;;;;;4.72;1.40;;;;;;;;;;5082515;28;20051;-82
2022/12/08 06:21:32;;;;;;;1.48;0.95;;;;;;;;;;5084073;28;20049;-81
2022/12/08 06:23:59;;;;;;;4.50;1.23;;;;;;;;;;5080951;28;20057;-82
2022/12/08 06:26:29;;;;;;;3.53;1.10;;;;;;;;;;5079698;28;20045;-82
2022/12/08 06:28:59;;;;;;;4.93;1.00;;;;;;;;;;5084839;28;20045;-82
2022/12/08 06:31:26;;;;;;;2.85;1.00;;;;;;;;;;5080290;28;20049;-82
2022/12/08 06:33:55;;;;;;;2.70;0.88;;;;;;;;;;5082592;28;20212;-81
2022/12/08 06:36:24;;;;;;;2.90;1.30;;;;;;;;;;5075172;28;20049;-81
2022/12/08 06:38:55;;;;;;;5.65;1.50;;;;;;;;;;5083275;28;20594;-81
2022/12/08 06:41:22;;;;;;;4.65;1.27;;;;;;;;;;5079552;28;20140;-81
2022/12/08 06:43:49;;;;;;;3.17;1.42;;;;;;;;;;5068291;28;20093;-81
2022/12/08 06:46:18;;;;;;;1.10;1.00;;;;;;;;;;5082305;28;20111;-81
2022/12/08 06:48:46;;;;;;;1.75;1.08;;;;;;;;;;5078770;28;20046;-81
2022/12/08 06:51:16;;;;;;;4.65;1.50;;;;;;;;;;5082986;28;20021;-81
2022/12/08 06:53:44;;;;;;;2.45;1.42;;;;;;;;;;5083057;28;20143;-81
2022/12/08 06:56:14;;;;;;;5.95;1.48;;;;;;;;;;5084728;28;20135;-81
2022/12/08 06:58:41;;;;;;;3.80;1.50;;;;;;;;;;5080390;28;20050;-81
2022/12/08 07:01:16;;;;;;;2.47;1.42;;;;;;;;;;5089574;28;20106;-81
2022/12/08 07:03:45;;;;;;;1.40;1.30;;;;;;;;;;5086069;28;21111;-81
2022/12/08 07:06:17;;;;;;;2.67;1.80;;;;;;;;;;5066716;28;20040;-81
2022/12/08 07:08:44;;;;;;;3.08;1.80;;;;;;;;;;5086959;28;20106;-81
2022/12/08 07:11:12;;;;;;;3.15;1.77;;;;;;;;;;5091227;28;20060;-81
2022/12/08 07:13:47;;;;;;;2.40;1.77;;;;;;;;;;5081483;28;20048;-81
2022/12/08 07:16:16;;;;;;;4.85;2.10;;;;;;;;;;5088130;28;20045;-81
2022/12/08 07:18:44;;;;;;;5.30;2.55;;;;;;;;;;5068799;28;20060;-81
2022/12/08 07:21:14;;;;;;;5.38;2.55;;;;;;;;;;5091943;28;20547;-81
2022/12/08 07:23:42;;;;;;;5.95;2.58;;;;;;;;;;5083592;28;20071;-81
2022/12/08 07:26:11;;;;;;;6.35;2.42;;;;;;;;;;5086956;28;20056;-81
2022/12/08 07:28:42;;;;;;;6.05;2.55;;;;;;;;;;5089407;28;20064;-81
2022/12/08 07:31:17;;;;;;;2.90;1.90;;;;;;;;;;5086060;28;20220;-81
2022/12/08 07:33:44;;;;;;;3.08;1.80;;;;;;;;;;5084936;28;20112;-81
2022/12/08 07:36:12;;;;;;;4.47;2.13;;;;;;;;;;5085959;28;20048;-81
2022/12/08 07:38:40;;;;;;;4.00;2.00;;;;;;;;;;5083240;28;21019;-81
2022/12/08 07:41:11;;;;;;;4.68;1.85;;;;;;;;;;5074885;28;20041;-81
2022/12/08 07:43:38;;;;;;;2.83;1.90;;;;;;;;;;5078076;28;20052;-81
2022/12/08 07:46:10;;;;;;;2.92;2.00;;;;;;;;;;5085157;28;20063;-81
2022/12/08 07:48:38;;;;;;;3.65;2.17;;;;;;;;;;5068911;28;20033;-81
2022/12/08 07:51:12;;;;;;;2.83;2.00;;;;;;;;;;5076566;28;20040;-81
2022/12/08 07:53:40;;;;;;;4.07;1.80;;;;;;;;;;5077743;28;20114;-81
2022/12/08 07:56:11;;;;;;;2.60;1.40;;;;;;;;;;5068419;28;20053;-81
2022/12/08 07:58:38;;;;;;;2.40;1.40;;;;;;;;;;5086823;28;20149;-81
2022/12/08 08:01:06;;;;;;;2.42;1.45;;;;;;;;;;5077777;28;20065;-81
2022/12/08 08:03:36;;;;;;;3.42;1.30;;;;;;;;;;5088562;28;20048;-81
2022/12/08 08:06:04;;;;;;;2.83;1.40;;;;;;;;;;5073137;28;20060;-81
2022/12/08 08:08:33;;;;;;;2.08;1.23;;;;;;;;;;5074473;28;20033;-80
2022/12/08 08:11:00;;;;;;;4.03;1.40;;;;;;;;;;5088572;28;20105;-81
2022/12/08 08:13:39;;;;;;;1.23;0.90;;;;;;;;;;5089255;28;20732;-81
2022/12/08 08:16:08;;;;;;;2.28;1.27;;;;;;;;;;5084028;28;20083;-81
2022/12/08 08:18:36;;;;;;;3.28;1.25;;;;;;;;;;5083468;28;20037;-81
2022/12/08 08:21:04;;;;;;;2.58;1.27;;;;;;;;;;5090140;28;20052;-81
2022/12/08 08:23:53;;;;;;;1.55;1.02;;;;;;;;;;5089409;28;20045;-80
2022/12/08 08:26:24;;;;;;;2.38;1.42;;;;;;;;;;5091214;28;20049;-80
2022/12/08 08:28:55;;;;;;;1.40;1.20;;;;;;;;;;5074166;28;20068;-80
2022/12/08 08:31:26;;;;;;;2.97;1.23;;;;;;;;;;5092029;28;20049;-80
2022/12/08 08:33:54;;;;;;;1.80;1.20;;;;;;;;;;5086015;28;20088;-81
2022/12/08 08:36:29;;;;;;;3.05;1.27;;;;;;;;;;5068985;28;20963;-80
2022/12/08 08:38:57;;;;;;;2.65;1.42;;;;;;;;;;5076401;28;20052;-81
2022/12/08 08:41:24;;;;;;;1.70;1.27;;;;;;;;;;5096087;28;20059;-81
2022/12/08 08:43:55;;;;;;;5.40;1.10;;;;;;;;;;5078294;28;20084;-81
2022/12/08 08:46:22;;;;;;;2.35;1.35;;;;;;;;;;5091979;28;20053;-80
2022/12/08 08:48:50;;;;;;;4.80;1.40;;;;;;;;;;5092394;28;20893;-81
2022/12/08 08:51:28;;;;;;;4.13;1.20;;;;;;;;;;5097092;28;20059;-80
2022/12/08 08:53:56;;;;;;;1.63;1.10;;;;;;;;;;5085517;28;20049;-80
2022/12/08 08:56:24;;;;;;;2.55;1.40;;;;;;;;;;5097613;28;20052;-80
2022/12/08 08:58:54;;;;;;;4.03;0.93;;;;;;;;;;5076272;28;20040;-81
2022/12/08 09:01:26;;;;;;;2.25;1.10;;;;;;;;;;5093757;28;20089;-81
2022/12/08 09:03:57;;;;;;;3.72;1.20;;;;;;;;;;5093427;28;20061;-81
2022/12/08 09:06:26;;;;;;;1.80;1.10;;;;;;;;;;5082488;28;20029;-81
2022/12/08 09:08:54;;;;;;;4.63;1.25;;;;;;;;;;5076776;28;20042;-81
2022/12/08 09:11:31;;;;;;;3.65;1.02;;;;;;;;;;5101023;28;20029;-80
2022/12/08 09:14:02;;;;;;;0.88;0.88;;;;;;;;;;5097515;28;20075;-81
2022/12/08 09:16:29;;;;;;;1.75;1.10;;;;;;;;;;5104719;28;20033;-81
2022/12/08 09:19:06;;;;;;;1.23;0.90;;;;;;;;;;5089465;28;20055;-80
2022/12/08 09:21:34;;;;;;;0.90;0.90;;;;;;;;;;5079176;28;20094;-81
2022/12/08 09:24:05;;;;;;;3.15;1.00;;;;;;;;;;5088660;28;20103;-81
2022/12/08 09:26:38;;;;;;;1.13;0.90;;;;;;;;;;5078995;28;20185;-81
2022/12/08 09:29:06;;;;;;;1.13;1.02;;;;;;;;;;5077028;28;20029;-81
2022/12/08 09:31:35;;;;;;;1.60;1.10;;;;;;;;;;5091527;28;20037;-82
2022/12/08 09:34:03;;;;;;;2.65;1.25;;;;;;;;;;5094326;28;20049;-81
2022/12/08 09:36:31;;;;;;;1.20;1.10;;;;;;;;;;5093369;28;20056;-81
2022/12/08 09:38:58;;;;;;;1.30;1.20;;;;;;;;;;5080497;28;20037;-81
2022/12/08 09:41:44;;;;;;;1.23;1.08;;;;;;;;;;5095357;28;20064;-81
2022/12/08 09:44:33;;;;;;;0.70;0.70;;;;;;;;;;5090651;28;20048;-81
2022/12/08 09:47:03;;;;;;;2.53;0.90;;;;;;;;;;5081391;28;20144;-81
2022/12/08 09:49:39;;;;;;;2.83;0.77;;;;;;;;;;5076758;28;20059;-80
2022/12/08 09:52:15;;;;;;;4.07;0.90;;;;;;;;;;5094669;28;20041;-80
2022/12/08 09:54:43;;;;;;;2.97;0.93;;;;;;;;;;5091905;28;20033;-81
2022/12/08 09:57:16;;;;;;;1.63;0.98;;;;;;;;;;5090451;28;20049;-80
2022/12/08 09:59:47;;;;;;;1.35;1.05;;;;;;;;;;5090489;28;20038;-80
2022/12/08 10:02:25;;;;;;;1.50;1.00;;;;;;;;;;5071360;28;20076;-80
2022/12/08 10:04:56;;;;;;;4.10;0.98;;;;;;;;;;5078750;28;20055;-80
2022/12/08 10:07:29;;;;;;;3.17;1.10;;;;;;;;;;5086112;28;20069;-80
2022/12/08 10:10:15;;;;;;;2.70;1.17;;;;;;;;;;5071868;28;20071;-81
2022/12/08 10:12:45;;;;;;;1.58;0.90;;;;;;;;;;5088437;28;20055;-80
2022/12/08 10:15:12;;;;;;;0.80;0.80;;;;;;;;;;5086167;28;20559;-80
2022/12/08 10:17:47;;;;;;;1.80;1.17;;;;;;;;;;5093754;28;20041;-80
2022/12/08 10:20:27;;;;;;;2.65;0.95;;;;;;;;;;5073828;28;20045;-81
2022/12/08 10:23:06;;;;;;;4.40;1.10;;;;;;;;;;5091174;28;20060;-80
2022/12/08 10:25:39;;;;;;;1.70;1.08;;;;;;;;;;5090273;28;20053;-80
2022/12/08 10:28:08;;;;;;;3.80;1.30;;;;;;;;;;5069020;28;20041;-80
2022/12/08 10:30:36;;;;;;;3.78;1.20;;;;;;;;;;5094690;28;20073;-80
2022/12/08 10:33:03;;;;;;;6.03;1.13;;;;;;;;;;5085493;28;20051;-80
2022/12/08 10:35:45;;;;;;;2.65;1.30;;;;;;;;;;5070708;28;20041;-80
2022/12/08 10:38:19;;;;;;;3.63;1.30;;;;;;;;;;5088640;28;20060;-80
2022/12/08 10:40:47;;;;;;;2.08;1.27;;;;;;;;;;5069305;28;20104;-80
2022/12/08 10:43:18;;;;;;;4.82;1.30;;;;;;;;;;5070127;28;20049;-80
2022/12/08 10:45:48;;;;;;;0.90;0.80;;;;;;;;;;5088517;28;20049;-80
2022/12/08 10:48:20;;;;;;;0.68;0.68;;;;;;;;;;5082567;28;20047;-80
2022/12/08 10:50:58;;;;;;;1.70;1.00;;;;;;;;;;5082771;28;20056;-80
2022/12/08 10:53:29;;;;;;;1.20;0.80;;;;;;;;;;5082675;28;20049;-80
2022/12/08 10:56:02;;;;;;;0.85;0.80;;;;;;;;;;5085953;28;20045;-81
2022/12/08 10:58:30;;;;;;;4.28;1.15;;;;;;;;;;5092741;28;20053;-80
2022/12/08 11:00:59;;;;;;;1.40;0.90;;;;;;;;;;5074655;28;20040;-80
2022/12/08 11:03:32;;;;;;;1.13;0.75;;;;;;;;;;5070377;28;20057;-80
2022/12/08 11:06:01;;;;;;;0.88;0.80;;;;;;;;;;5087126;28;20111;-81
2022/12/08 11:08:44;;;;;;;2.60;1.10;;;;;;;;;;5072893;28;20049;-81
2022/12/08 11:11:13;;;;;;;2.83;1.08;;;;;;;;;;5087898;28;20040;-81
2022/12/08 11:13:42;;;;;;;3.08;0.90;;;;;;;;;;5081447;28;20060;-81
2022/12/08 11:16:11;;;;;;;2.75;0.63;;;;;;;;;;5086165;28;20837;-81
2022/12/08 11:18:45;;;;;;;1.38;0.90;;;;;;;;;;5070265;28;20072;-80
2022/12/08 11:21:20;;;;;;;2.53;0.88;;;;;;;;;;5083445;28;20064;-81
2022/12/08 11:23:50;;;;;;;1.33;0.80;;;;;;;;;;5076099;28;20068;-80
2022/12/08 11:26:20;;;;;;;3.92;0.90;;;;;;;;;;5086765;28;20072;-81
2022/12/08 11:28:55;;;;;;;0.85;0.85;;;;;;;;;;5088157;28;20056;-81
2022/12/08 11:31:39;;;;;;;1.48;1.20;;;;;;;;;;5086609;28;20048;-81
2022/12/08 11:34:07;;;;;;;;;;;;;;;;;;5092667;28;20029;-81
2022/12/08 11:36:35;;;;;;;2.97;1.30;;;;;;;;;;5069330;28;44282;-81
2022/12/08 11:39:04;;;;;;;2.22;1.50;;;;;;;;;;5085162;28;20053;-81
2022/12/08 11:41:39;;;;;;;2.20;1.42;;;;;;;;;;5082587;28;20059;-82
2022/12/08 11:44:12;;;;;;;4.65;1.95;;;;;;;;;;5082203;28;20041;-81
2022/12/08 11:46:39;;;;;;;;;;;;;;;;;;5088394;28;20829;-81
2022/12/08 11:49:11;;;;;;;2.38;1.63;;;;;;;;;;5080601;28;43196;-81
2022/12/08 11:51:39;;;;;;;1.98;1.50;;;;;;;;;;5087931;28;20053;-81
2022/12/08 11:54:10;;;;;;;3.50;1.33;;;;;;;;;;5083833;28;20148;-81
2022/12/08 11:56:40;;;;;;;1.42;0.88;;;;;;;;;;5067384;28;20049;-81
2022/12/08 11:59:28;;;;;;;3.38;1.05;;;;;;;;;;5066886;28;20041;-81
2022/12/08 12:02:00;;;;;;;0.80;0.80;;;;;;;;;;5084514;28;20064;-81
2022/12/08 12:04:41;;;;;;;3.42;0.75;;;;;;;;;;5082885;28;20029;-81
2022/12/08 12:07:19;;;;;;;3.28;0.90;;;;;;;;;;5087552;28;20668;-82
2022/12/08 12:09:59;;;;;;;0.67;0.63;;;;;;;;;;5083046;28;20053;-81
2022/12/08 12:12:39;;;;;;;2.08;0.70;;;;;;;;;;5071500;28;20057;-81
2022/12/08 12:15:25;;;;;;;1.80;0.70;;;;;;;;;;5082856;28;20093;-81
2022/12/08 12:18:03;;;;;;;3.15;0.60;;;;;;;;;;5085673;28;20041;-81
2022/12/08 12:20:31;;;;;;;0.60;0.60;;;;;;;;;;5085808;28;20045;-81
2022/12/08 12:23:04;;;;;;;12.57;1.00;;;;;;;;;;5089679;28;20041;-81
2022/12/08 12:25:35;;;;;;;1.75;1.00;;;;;;;;;;5065766;28;20037;-81
2022/12/08 12:28:05;;;;;;;0.90;0.90;;;;;;;;;;5073380;28;20048;-82
2022/12/08 12:30:49;;;;;;;2.55;1.10;;;;;;;;;;5086582;28;20099;-82
2022/12/08 12:33:18;;;;;;;3.63;1.58;;;;;;;;;;5059284;28;20042;-81
2022/12/08 12:35:49;;;;;;;4.70;1.52;;;;;;;;;;5091035;28;20028;-81
2022/12/08 12:41:14;;;;;;;2.17;1.50;;;;;;;;;;5086425;28;20107;-82
2022/12/08 12:44:04;;;;;;;8.88;2.13;;;;;;;;;;5086014;28;20045;-82
2022/12/08 12:46:47;;;;;;;2.45;1.60;;;;;;;;;;5076089;28;20044;-81
2022/12/08 12:49:33;;;;;;;2.63;1.80;;;;;;;;;;5082927;28;20045;-82
2022/12/08 12:52:04;;;;;;;5.18;1.90;;;;;;;;;;5064302;28;20056;-82
2022/12/08 12:54:33;;;;;;;3.80;2.17;;;;;;;;;;5062306;28;20059;-82
2022/12/08 12:57:13;;;;;;;5.68;2.10;;;;;;;;;;5086466;28;20142;-82
2022/12/08 12:59:42;;;;;;;3.45;2.00;;;;;;;;;;5068995;28;20064;-82
2022/12/08 13:02:22;;;;;;;4.05;2.00;;;;;;;;;;5078374;28;20080;-83
2022/12/08 13:05:09;;;;;;;2.70;1.85;;;;;;;;;;5084784;28;20037;-82
2022/12/08 13:07:49;;;;;;;5.85;1.95;;;;;;;;;;5080267;28;20033;-82
2022/12/08 13:10:24;;;;;;;5.22;1.80;;;;;;;;;;5083740;28;20041;-82
2022/12/08 13:13:17;;;;;;;1.67;1.45;;;;;;;;;;5082854;28;20104;-82
2022/12/08 13:15:51;;;;;;;3.15;1.55;;;;;;;;;;5080539;28;20053;-82
2022/12/08 13:18:25;;;;;;;2.53;1.55;;;;;;;;;;5067725;28;20038;-82
2022/12/08 13:21:04;;;;;;;2.93;1.53;;;;;;;;;;5070759;28;20059;-82
2022/12/08 13:23:38;;;;;;;5.03;1.30;;;;;;;;;;5085268;28;21125;-82
2022/12/08 13:26:14;;;;;;;1.70;1.23;;;;;;;;;;5086238;28;20037;-82
2022/12/08 13:29:03;;;;;;;2.20;1.40;;;;;;;;;;5078083;28;20943;-82
2022/12/08 13:31:41;;;;;;;1.77;1.30;;;;;;;;;;5085584;28;20059;-82
2022/12/08 13:34:19;;;;;;;;;;;;;;;;;;5082040;28;20075;-82
2022/12/08 13:37:07;;;;;;;3.78;1.90;;;;;;;;;;5084196;28;42749;-82
2022/12/08 13:39:37;;;;;;;2.30;1.95;;;;;;;;;;5088801;28;20059;-81
2022/12/08 13:42:24;;;;;;;6.43;2.17;;;;;;;;;;5079866;28;20053;-82
2022/12/08 13:44:55;;;;;;;5.80;2.70;;;;;;;;;;5080913;28;20125;-82
2022/12/08 13:47:47;;;;;;;4.03;2.53;;;;;;;;;;5069308;28;20147;-82
2022/12/08 13:51:10;;;;;;;3.80;2.60;;;;;;;;;;5082052;28;20060;-81
2022/12/08 13:54:00;;;;;;;6.05;3.00;;;;;;;;;;5020839;28;20047;-82
2022/12/08 13:56:49;;;;;;;4.53;2.60;;;;;;;;;;5021628;28;20060;-82
2022/12/08 13:59:42;;;;;;;5.65;2.90;;;;;;;;;;5024664;28;20046;-82
2022/12/08 14:02:28;;;;;;;7.45;2.78;;;;;;;;;;5013331;28;20035;-81
2022/12/08 14:04:58;;;;;;;5.82;2.70;;;;;;;;;;5024672;28;20057;-82
2022/12/08 14:07:49;;;;;;;4.85;2.70;;;;;;;;;;5015098;28;20079;-81
2022/12/08 14:10:21;;;;;;;5.47;2.90;;;;;;;;;;5025947;28;20039;-82
2022/12/08 14:13:02;;;;;;;5.40;2.67;;;;;;;;;;5004351;28;20039;-81
2022/12/08 14:15:36;;;;;;;5.25;2.65;;;;;;;;;;5003948;28;20105;-82
2022/12/08 14:18:13;;;;;;;5.40;2.55;;;;;;;;;;5022316;28;20141;-82
2022/12/08 14:20:43;;;;;;;5.32;2.47;;;;;;;;;;5023067;28;20049;-81
2022/12/08 14:23:34;;;;;;;8.27;2.72;;;;;;;;;;5082095;28;20759;-81
2022/12/08 14:26:04;;;;;;;4.50;2.80;;;;;;;;;;5083448;28;20060;-81
2022/12/08 14:28:54;;;;;;;8.50;2.58;;;;;;;;;;5085683;28;20049;-83
2022/12/08 14:31:28;;;;;;;4.50;3.13;;;;;;;;;;5082661;28;20068;-81
2022/12/08 14:33:58;;;;;;;6.63;2.53;;;;;;;;;;5081564;28;20091;-81
2022/12/08 14:36:32;;;;;;;5.97;2.67;;;;;;;;;;5072252;28;20071;-81
2022/12/08 14:39:01;;;;;;;4.63;2.80;;;;;;;;;;5080001;28;20045;-81
2022/12/08 14:41:32;;;;;;;5.10;2.83;;;;;;;;;;5078377;28;20045;-82
2022/12/08 14:44:00;;;;;;;6.30;2.80;;;;;;;;;;5064306;28;20053;-81
2022/12/08 14:46:28;;;;;;;4.05;2.40;;;;;;;;;;5082012;28;20037;-81
2022/12/08 14:48:58;;;;;;;6.60;2.72;;;;;;;;;;5076217;28;20099;-81
2022/12/08 14:51:34;;;;;;;5.05;3.33;;;;;;;;;;5076272;28;20056;-81
2022/12/08 14:54:15;;;;;;;5.53;3.53;;;;;;;;;;5062527;28;20045;-81
2022/12/08 14:56:52;;;;;;;5.22;3.47;;;;;;;;;;5063764;28;20809;-81
2022/12/08 14:59:22;;;;;;;6.25;3.45;;;;;;;;;;5064935;28;20095;-82
2022/12/08 15:02:18;;;;;;;6.13;3.45;;;;;;;;;;5082791;28;20140;-81
2022/12/08 15:05:02;;;;;;;5.15;3.53;;;;;;;;;;5064305;28;20059;-81
2022/12/08 15:07:36;;;;;;;6.72;3.30;;;;;;;;;;5077981;28;20064;-81
2022/12/08 15:10:25;;;;;;;4.95;3.60;;;;;;;;;;5075427;28;20079;-81
2022/12/08 15:13:12;;;;;;;;;;;;;;;;;;;;;
2022/12/08 15:15:55;;;;;;;7.95;3.78;;;;;;;;;;5083655;28;20024;-81
2022/12/08 15:18:39;;;;;;;5.25;3.80;;;;;;;;;;5085101;28;20052;-81
2022/12/08 15:21:14;;;;;;;7.43;3.60;;;;;;;;;;5079859;28;20058;-81